<?xml version="1.0" encoding="UTF-8" standalone="no" ?>
<gpx xmlns="http://www.topografix.com/GPX/1/1" xmlns:xsi="http://www.w3.org/2001/XMLSchema-instance" xsi:schemaLocation="http://www.topografix.com/GPX/1/1 http://www.topografix.com/GPX/1/1/gpx.xsd" version="1.1" creator="VisuGPX - https://www.visugpx.com">
  <metadata>
    <name>lacs achard et robert</name>
    <desc><![CDATA[avec Mini Xander à pieds ou dans le sac à dos ;)]]></desc>
  </metadata>
  <trk>
    <name><![CDATA[lacs Achard et Robert]]></name>
    <desc><![CDATA[<p>Heure de départ: 06/23/2018 10:08<br/>Heure d'arrivée: 06/23/2018 16:47<br/>Distance: 11,6 km (06:39)<br/>Temps déplacement: 04:10<br/>Vitesse moyenne: 1,75 km/h<br/>Vitesse moyenne mouv.: 2,78 km/h<br/>Vitesse Max.: 8,34 km/h<br/>Altitude minimale: 1743 m<br/>Altitude maximale: 2180 m<br/>Vitesse de montée: 141,5 m/h<br/>Vitesse de descente: -217,1 m/h<br/>Gain d'altitude: 570 m<br/>Perte d'altitude: -568 m<br/>Temps de montée: 04:01<br/>Temps de descente: 02:37<br/></p><hr align="center" width="480" style="height: 2px; width: 517px"/>]]></desc>
    <trkseg>
      <trkpt lat="45.10613" lon="5.87538">
        <ele>1745.49</ele>
        <time>2018-06-23T08:08:08Z</time>
      </trkpt>
      <trkpt lat="45.10597" lon="5.87551">
        <ele>1743.57</ele>
        <time>2018-06-23T08:12:59Z</time>
      </trkpt>
      <trkpt lat="45.10584" lon="5.87571">
        <ele>1743.97</ele>
        <time>2018-06-23T08:13:28Z</time>
      </trkpt>
      <trkpt lat="45.10578" lon="5.87596">
        <ele>1745.57</ele>
        <time>2018-06-23T08:13:49Z</time>
      </trkpt>
      <trkpt lat="45.10571" lon="5.8762">
        <ele>1745.34</ele>
        <time>2018-06-23T08:14:15Z</time>
      </trkpt>
      <trkpt lat="45.10572" lon="5.87646">
        <ele>1746.02</ele>
        <time>2018-06-23T08:14:43Z</time>
      </trkpt>
      <trkpt lat="45.10586" lon="5.87661">
        <ele>1749.03</ele>
        <time>2018-06-23T08:15:12Z</time>
      </trkpt>
      <trkpt lat="45.10602" lon="5.87672">
        <ele>1746.25</ele>
        <time>2018-06-23T08:16:07Z</time>
      </trkpt>
      <trkpt lat="45.10605" lon="5.87698">
        <ele>1749.11</ele>
        <time>2018-06-23T08:16:42Z</time>
      </trkpt>
      <trkpt lat="45.10619" lon="5.87717">
        <ele>1752.28</ele>
        <time>2018-06-23T08:17:17Z</time>
      </trkpt>
      <trkpt lat="45.10623" lon="5.87742">
        <ele>1758.68</ele>
        <time>2018-06-23T08:17:54Z</time>
      </trkpt>
      <trkpt lat="45.10626" lon="5.87769">
        <ele>1762.34</ele>
        <time>2018-06-23T08:18:47Z</time>
      </trkpt>
      <trkpt lat="45.10628" lon="5.87795">
        <ele>1768.39</ele>
        <time>2018-06-23T08:19:27Z</time>
      </trkpt>
      <trkpt lat="45.10635" lon="5.87819">
        <ele>1769.28</ele>
        <time>2018-06-23T08:19:53Z</time>
      </trkpt>
      <trkpt lat="45.1064" lon="5.87844">
        <ele>1770.07</ele>
        <time>2018-06-23T08:20:21Z</time>
      </trkpt>
      <trkpt lat="45.1064" lon="5.8787">
        <ele>1770.31</ele>
        <time>2018-06-23T08:20:46Z</time>
      </trkpt>
      <trkpt lat="45.10643" lon="5.87896">
        <ele>1771.38</ele>
        <time>2018-06-23T08:21:07Z</time>
      </trkpt>
      <trkpt lat="45.10646" lon="5.87922">
        <ele>1773.94</ele>
        <time>2018-06-23T08:21:41Z</time>
      </trkpt>
      <trkpt lat="45.1065" lon="5.87948">
        <ele>1775.3</ele>
        <time>2018-06-23T08:22:08Z</time>
      </trkpt>
      <trkpt lat="45.10653" lon="5.87974">
        <ele>1777.85</ele>
        <time>2018-06-23T08:22:33Z</time>
      </trkpt>
      <trkpt lat="45.10657" lon="5.87999">
        <ele>1782.39</ele>
        <time>2018-06-23T08:23:03Z</time>
      </trkpt>
      <trkpt lat="45.1066" lon="5.88024">
        <ele>1786.87</ele>
        <time>2018-06-23T08:23:39Z</time>
      </trkpt>
      <trkpt lat="45.10662" lon="5.8805">
        <ele>1787.84</ele>
        <time>2018-06-23T08:24:28Z</time>
      </trkpt>
      <trkpt lat="45.10666" lon="5.88075">
        <ele>1788.88</ele>
        <time>2018-06-23T08:25:02Z</time>
      </trkpt>
      <trkpt lat="45.10666" lon="5.88101">
        <ele>1792.12</ele>
        <time>2018-06-23T08:26:49Z</time>
      </trkpt>
      <trkpt lat="45.10667" lon="5.88127">
        <ele>1793.31</ele>
        <time>2018-06-23T08:27:15Z</time>
      </trkpt>
      <trkpt lat="45.10667" lon="5.88154">
        <ele>1793.91</ele>
        <time>2018-06-23T08:27:37Z</time>
      </trkpt>
      <trkpt lat="45.10668" lon="5.8818">
        <ele>1794.82</ele>
        <time>2018-06-23T08:28:03Z</time>
      </trkpt>
      <trkpt lat="45.1067" lon="5.88206">
        <ele>1795.74</ele>
        <time>2018-06-23T08:28:31Z</time>
      </trkpt>
      <trkpt lat="45.10674" lon="5.88232">
        <ele>1795.93</ele>
        <time>2018-06-23T08:28:51Z</time>
      </trkpt>
      <trkpt lat="45.10672" lon="5.88257">
        <ele>1796.25</ele>
        <time>2018-06-23T08:29:29Z</time>
      </trkpt>
      <trkpt lat="45.10683" lon="5.88279">
        <ele>1797.27</ele>
        <time>2018-06-23T08:30:16Z</time>
      </trkpt>
      <trkpt lat="45.10688" lon="5.88303">
        <ele>1796.79</ele>
        <time>2018-06-23T08:31:12Z</time>
      </trkpt>
      <trkpt lat="45.10688" lon="5.88329">
        <ele>1797.34</ele>
        <time>2018-06-23T08:31:43Z</time>
      </trkpt>
      <trkpt lat="45.10686" lon="5.88355">
        <ele>1795.46</ele>
        <time>2018-06-23T08:32:17Z</time>
      </trkpt>
      <trkpt lat="45.10689" lon="5.88381">
        <ele>1794.23</ele>
        <time>2018-06-23T08:32:55Z</time>
      </trkpt>
      <trkpt lat="45.107" lon="5.88403">
        <ele>1792.13</ele>
        <time>2018-06-23T08:33:13Z</time>
      </trkpt>
      <trkpt lat="45.10707" lon="5.88427">
        <ele>1790.53</ele>
        <time>2018-06-23T08:34:01Z</time>
      </trkpt>
      <trkpt lat="45.10719" lon="5.88447">
        <ele>1790.32</ele>
        <time>2018-06-23T08:34:28Z</time>
      </trkpt>
      <trkpt lat="45.10725" lon="5.88472">
        <ele>1789.67</ele>
        <time>2018-06-23T08:35:03Z</time>
      </trkpt>
      <trkpt lat="45.10728" lon="5.88497">
        <ele>1790.43</ele>
        <time>2018-06-23T08:35:44Z</time>
      </trkpt>
      <trkpt lat="45.10729" lon="5.88523">
        <ele>1791.87</ele>
        <time>2018-06-23T08:36:23Z</time>
      </trkpt>
      <trkpt lat="45.10729" lon="5.88549">
        <ele>1795.76</ele>
        <time>2018-06-23T08:37:22Z</time>
      </trkpt>
      <trkpt lat="45.10736" lon="5.88573">
        <ele>1796.64</ele>
        <time>2018-06-23T08:38:27Z</time>
      </trkpt>
      <trkpt lat="45.10743" lon="5.88596">
        <ele>1801.54</ele>
        <time>2018-06-23T08:40:17Z</time>
      </trkpt>
      <trkpt lat="45.1075" lon="5.88621">
        <ele>1804.58</ele>
        <time>2018-06-23T08:40:44Z</time>
      </trkpt>
      <trkpt lat="45.1076" lon="5.88643">
        <ele>1803.83</ele>
        <time>2018-06-23T08:41:15Z</time>
      </trkpt>
      <trkpt lat="45.10768" lon="5.88666">
        <ele>1805.29</ele>
        <time>2018-06-23T08:41:55Z</time>
      </trkpt>
      <trkpt lat="45.10779" lon="5.88688">
        <ele>1805.85</ele>
        <time>2018-06-23T08:42:29Z</time>
      </trkpt>
      <trkpt lat="45.10791" lon="5.88708">
        <ele>1801.88</ele>
        <time>2018-06-23T08:43:45Z</time>
      </trkpt>
      <trkpt lat="45.108" lon="5.88731">
        <ele>1803.8</ele>
        <time>2018-06-23T08:45:37Z</time>
      </trkpt>
      <trkpt lat="45.10812" lon="5.88752">
        <ele>1803.15</ele>
        <time>2018-06-23T08:46:43Z</time>
      </trkpt>
      <trkpt lat="45.10815" lon="5.88778">
        <ele>1802.79</ele>
        <time>2018-06-23T08:47:40Z</time>
      </trkpt>
      <trkpt lat="45.10811" lon="5.88803">
        <ele>1804.61</ele>
        <time>2018-06-23T08:49:00Z</time>
      </trkpt>
      <trkpt lat="45.10807" lon="5.88829">
        <ele>1805.82</ele>
        <time>2018-06-23T08:49:31Z</time>
      </trkpt>
      <trkpt lat="45.10814" lon="5.88853">
        <ele>1806.11</ele>
        <time>2018-06-23T08:50:06Z</time>
      </trkpt>
      <trkpt lat="45.10818" lon="5.88878">
        <ele>1801.8</ele>
        <time>2018-06-23T08:51:03Z</time>
      </trkpt>
      <trkpt lat="45.1083" lon="5.88899">
        <ele>1804.42</ele>
        <time>2018-06-23T08:51:27Z</time>
      </trkpt>
      <trkpt lat="45.10842" lon="5.88918">
        <ele>1807.34</ele>
        <time>2018-06-23T08:51:51Z</time>
      </trkpt>
      <trkpt lat="45.10854" lon="5.88938">
        <ele>1811.72</ele>
        <time>2018-06-23T08:52:25Z</time>
      </trkpt>
      <trkpt lat="45.1086" lon="5.88962">
        <ele>1811.96</ele>
        <time>2018-06-23T08:53:00Z</time>
      </trkpt>
      <trkpt lat="45.10865" lon="5.88988">
        <ele>1816.11</ele>
        <time>2018-06-23T08:53:37Z</time>
      </trkpt>
      <trkpt lat="45.10871" lon="5.89013">
        <ele>1811.05</ele>
        <time>2018-06-23T08:54:28Z</time>
      </trkpt>
      <trkpt lat="45.10874" lon="5.89039">
        <ele>1810.13</ele>
        <time>2018-06-23T08:54:52Z</time>
      </trkpt>
      <trkpt lat="45.10886" lon="5.89059">
        <ele>1810.82</ele>
        <time>2018-06-23T08:55:33Z</time>
      </trkpt>
      <trkpt lat="45.10896" lon="5.8908">
        <ele>1812.13</ele>
        <time>2018-06-23T08:56:16Z</time>
      </trkpt>
      <trkpt lat="45.10912" lon="5.89094">
        <ele>1815.51</ele>
        <time>2018-06-23T08:57:07Z</time>
      </trkpt>
      <trkpt lat="45.10925" lon="5.89111">
        <ele>1815.57</ele>
        <time>2018-06-23T08:57:31Z</time>
      </trkpt>
      <trkpt lat="45.10938" lon="5.89131">
        <ele>1815.49</ele>
        <time>2018-06-23T08:58:03Z</time>
      </trkpt>
      <trkpt lat="45.10939" lon="5.89157">
        <ele>1817.45</ele>
        <time>2018-06-23T08:59:15Z</time>
      </trkpt>
      <trkpt lat="45.1094" lon="5.89184">
        <ele>1829.35</ele>
        <time>2018-06-23T09:01:16Z</time>
      </trkpt>
      <trkpt lat="45.10951" lon="5.89205">
        <ele>1821.43</ele>
        <time>2018-06-23T09:02:50Z</time>
      </trkpt>
      <trkpt lat="45.10962" lon="5.89226">
        <ele>1822.97</ele>
        <time>2018-06-23T09:05:20Z</time>
      </trkpt>
      <trkpt lat="45.10972" lon="5.89247">
        <ele>1824.83</ele>
        <time>2018-06-23T09:07:28Z</time>
      </trkpt>
      <trkpt lat="45.10973" lon="5.89274">
        <ele>1828.11</ele>
        <time>2018-06-23T09:08:15Z</time>
      </trkpt>
      <trkpt lat="45.1099" lon="5.89284">
        <ele>1841.26</ele>
        <time>2018-06-23T09:10:05Z</time>
      </trkpt>
      <trkpt lat="45.11003" lon="5.89303">
        <ele>1845.32</ele>
        <time>2018-06-23T09:10:42Z</time>
      </trkpt>
      <trkpt lat="45.11001" lon="5.89328">
        <ele>1847.71</ele>
        <time>2018-06-23T09:11:21Z</time>
      </trkpt>
      <trkpt lat="45.10992" lon="5.89351">
        <ele>1853.26</ele>
        <time>2018-06-23T09:14:00Z</time>
      </trkpt>
      <trkpt lat="45.10999" lon="5.89375">
        <ele>1857.9</ele>
        <time>2018-06-23T09:16:41Z</time>
      </trkpt>
      <trkpt lat="45.10999" lon="5.894">
        <ele>1866.01</ele>
        <time>2018-06-23T09:19:08Z</time>
      </trkpt>
      <trkpt lat="45.11001" lon="5.89426">
        <ele>1872.01</ele>
        <time>2018-06-23T09:20:07Z</time>
      </trkpt>
      <trkpt lat="45.11007" lon="5.8945">
        <ele>1874.59</ele>
        <time>2018-06-23T09:20:59Z</time>
      </trkpt>
      <trkpt lat="45.1101" lon="5.89476">
        <ele>1875.44</ele>
        <time>2018-06-23T09:21:33Z</time>
      </trkpt>
      <trkpt lat="45.11017" lon="5.89501">
        <ele>1874.55</ele>
        <time>2018-06-23T09:22:16Z</time>
      </trkpt>
      <trkpt lat="45.11025" lon="5.89524">
        <ele>1878.23</ele>
        <time>2018-06-23T09:23:07Z</time>
      </trkpt>
      <trkpt lat="45.11035" lon="5.89545">
        <ele>1884.97</ele>
        <time>2018-06-23T09:24:56Z</time>
      </trkpt>
      <trkpt lat="45.11042" lon="5.89569">
        <ele>1890.21</ele>
        <time>2018-06-23T09:31:01Z</time>
      </trkpt>
      <trkpt lat="45.1105" lon="5.89592">
        <ele>1893.44</ele>
        <time>2018-06-23T09:31:52Z</time>
      </trkpt>
      <trkpt lat="45.11051" lon="5.89618">
        <ele>1896.6</ele>
        <time>2018-06-23T09:32:27Z</time>
      </trkpt>
      <trkpt lat="45.11058" lon="5.89642">
        <ele>1898.4</ele>
        <time>2018-06-23T09:32:48Z</time>
      </trkpt>
      <trkpt lat="45.11064" lon="5.89666">
        <ele>1900</ele>
        <time>2018-06-23T09:33:07Z</time>
      </trkpt>
      <trkpt lat="45.11075" lon="5.89687">
        <ele>1902.08</ele>
        <time>2018-06-23T09:33:33Z</time>
      </trkpt>
      <trkpt lat="45.11083" lon="5.89711">
        <ele>1902.15</ele>
        <time>2018-06-23T09:34:01Z</time>
      </trkpt>
      <trkpt lat="45.11081" lon="5.89737">
        <ele>1901.86</ele>
        <time>2018-06-23T09:34:26Z</time>
      </trkpt>
      <trkpt lat="45.11079" lon="5.89763">
        <ele>1901.86</ele>
        <time>2018-06-23T09:34:45Z</time>
      </trkpt>
      <trkpt lat="45.11085" lon="5.89787">
        <ele>1902.59</ele>
        <time>2018-06-23T09:35:09Z</time>
      </trkpt>
      <trkpt lat="45.11092" lon="5.89811">
        <ele>1905.95</ele>
        <time>2018-06-23T09:35:43Z</time>
      </trkpt>
      <trkpt lat="45.11103" lon="5.89832">
        <ele>1909.23</ele>
        <time>2018-06-23T09:36:11Z</time>
      </trkpt>
      <trkpt lat="45.11113" lon="5.89854">
        <ele>1912.01</ele>
        <time>2018-06-23T09:36:37Z</time>
      </trkpt>
      <trkpt lat="45.11118" lon="5.89879">
        <ele>1914.09</ele>
        <time>2018-06-23T09:37:09Z</time>
      </trkpt>
      <trkpt lat="45.1112" lon="5.89905">
        <ele>1913</ele>
        <time>2018-06-23T09:37:25Z</time>
      </trkpt>
      <trkpt lat="45.1113" lon="5.89927">
        <ele>1911.26</ele>
        <time>2018-06-23T09:37:44Z</time>
      </trkpt>
      <trkpt lat="45.11144" lon="5.89943">
        <ele>1910.06</ele>
        <time>2018-06-23T09:38:06Z</time>
      </trkpt>
      <trkpt lat="45.1116" lon="5.89956">
        <ele>1909.81</ele>
        <time>2018-06-23T09:38:30Z</time>
      </trkpt>
      <trkpt lat="45.11175" lon="5.89972">
        <ele>1909.78</ele>
        <time>2018-06-23T09:38:51Z</time>
      </trkpt>
      <trkpt lat="45.11187" lon="5.89992">
        <ele>1909.88</ele>
        <time>2018-06-23T09:39:14Z</time>
      </trkpt>
      <trkpt lat="45.11201" lon="5.90007">
        <ele>1911.58</ele>
        <time>2018-06-23T09:39:33Z</time>
      </trkpt>
      <trkpt lat="45.11219" lon="5.90016">
        <ele>1914.39</ele>
        <time>2018-06-23T09:40:03Z</time>
      </trkpt>
      <trkpt lat="45.11235" lon="5.90027">
        <ele>1917.28</ele>
        <time>2018-06-23T09:40:27Z</time>
      </trkpt>
      <trkpt lat="45.11249" lon="5.90044">
        <ele>1919.48</ele>
        <time>2018-06-23T09:40:53Z</time>
      </trkpt>
      <trkpt lat="45.11259" lon="5.90065">
        <ele>1919.57</ele>
        <time>2018-06-23T09:41:10Z</time>
      </trkpt>
      <trkpt lat="45.11265" lon="5.9009">
        <ele>1919.32</ele>
        <time>2018-06-23T09:41:31Z</time>
      </trkpt>
      <trkpt lat="45.11273" lon="5.90114">
        <ele>1919.81</ele>
        <time>2018-06-23T09:41:50Z</time>
      </trkpt>
      <trkpt lat="45.11283" lon="5.90136">
        <ele>1919.92</ele>
        <time>2018-06-23T09:42:27Z</time>
      </trkpt>
      <trkpt lat="45.11299" lon="5.90123">
        <ele>1918.14</ele>
        <time>2018-06-23T09:43:08Z</time>
      </trkpt>
      <trkpt lat="45.11312" lon="5.90103">
        <ele>1918.78</ele>
        <time>2018-06-23T09:43:30Z</time>
      </trkpt>
      <trkpt lat="45.11331" lon="5.90103">
        <ele>1919.42</ele>
        <time>2018-06-23T09:44:00Z</time>
      </trkpt>
      <trkpt lat="45.1135" lon="5.90107">
        <ele>1919.94</ele>
        <time>2018-06-23T09:44:21Z</time>
      </trkpt>
      <trkpt lat="45.11366" lon="5.90092">
        <ele>1918.76</ele>
        <time>2018-06-23T09:45:01Z</time>
      </trkpt>
      <trkpt lat="45.11365" lon="5.90067">
        <ele>1914.63</ele>
        <time>2018-06-23T09:46:29Z</time>
      </trkpt>
      <trkpt lat="45.11364" lon="5.90092">
        <ele>1926.09</ele>
        <time>2018-06-23T10:16:14Z</time>
      </trkpt>
      <trkpt lat="45.11381" lon="5.90101">
        <ele>1922.75</ele>
        <time>2018-06-23T10:21:23Z</time>
      </trkpt>
      <trkpt lat="45.11397" lon="5.90113">
        <ele>1919.73</ele>
        <time>2018-06-23T10:23:53Z</time>
      </trkpt>
      <trkpt lat="45.11412" lon="5.90128">
        <ele>1920.3</ele>
        <time>2018-06-23T10:24:40Z</time>
      </trkpt>
      <trkpt lat="45.11427" lon="5.90142">
        <ele>1920.73</ele>
        <time>2018-06-23T10:25:13Z</time>
      </trkpt>
      <trkpt lat="45.11445" lon="5.90149">
        <ele>1920.82</ele>
        <time>2018-06-23T10:26:02Z</time>
      </trkpt>
      <trkpt lat="45.11427" lon="5.90149">
        <ele>1924.89</ele>
        <time>2018-06-23T10:28:29Z</time>
      </trkpt>
      <trkpt lat="45.11413" lon="5.90131">
        <ele>1924.54</ele>
        <time>2018-06-23T10:29:07Z</time>
      </trkpt>
      <trkpt lat="45.11398" lon="5.90116">
        <ele>1924.14</ele>
        <time>2018-06-23T10:29:59Z</time>
      </trkpt>
      <trkpt lat="45.11407" lon="5.90094">
        <ele>1926.16</ele>
        <time>2018-06-23T10:33:21Z</time>
      </trkpt>
      <trkpt lat="45.11395" lon="5.90075">
        <ele>1924.13</ele>
        <time>2018-06-23T10:34:42Z</time>
      </trkpt>
      <trkpt lat="45.11377" lon="5.90072">
        <ele>1925.9</ele>
        <time>2018-06-23T10:35:26Z</time>
      </trkpt>
      <trkpt lat="45.11383" lon="5.90096">
        <ele>1925.7</ele>
        <time>2018-06-23T10:54:38Z</time>
      </trkpt>
      <trkpt lat="45.11398" lon="5.90113">
        <ele>1923.76</ele>
        <time>2018-06-23T10:54:58Z</time>
      </trkpt>
      <trkpt lat="45.11415" lon="5.90126">
        <ele>1921.07</ele>
        <time>2018-06-23T10:55:18Z</time>
      </trkpt>
      <trkpt lat="45.11431" lon="5.90139">
        <ele>1919.22</ele>
        <time>2018-06-23T10:55:39Z</time>
      </trkpt>
      <trkpt lat="45.11449" lon="5.90137">
        <ele>1918.41</ele>
        <time>2018-06-23T10:55:54Z</time>
      </trkpt>
      <trkpt lat="45.11466" lon="5.90129">
        <ele>1918.64</ele>
        <time>2018-06-23T10:56:17Z</time>
      </trkpt>
      <trkpt lat="45.11482" lon="5.90142">
        <ele>1918.06</ele>
        <time>2018-06-23T10:56:40Z</time>
      </trkpt>
      <trkpt lat="45.11499" lon="5.90155">
        <ele>1919.19</ele>
        <time>2018-06-23T10:57:13Z</time>
      </trkpt>
      <trkpt lat="45.11511" lon="5.90174">
        <ele>1922.12</ele>
        <time>2018-06-23T10:57:40Z</time>
      </trkpt>
      <trkpt lat="45.11522" lon="5.90195">
        <ele>1921.42</ele>
        <time>2018-06-23T10:57:57Z</time>
      </trkpt>
      <trkpt lat="45.1151" lon="5.90215">
        <ele>1925.13</ele>
        <time>2018-06-23T10:58:25Z</time>
      </trkpt>
      <trkpt lat="45.11492" lon="5.9022">
        <ele>1927.07</ele>
        <time>2018-06-23T10:58:49Z</time>
      </trkpt>
      <trkpt lat="45.11473" lon="5.90216">
        <ele>1925.75</ele>
        <time>2018-06-23T10:59:07Z</time>
      </trkpt>
      <trkpt lat="45.11457" lon="5.90201">
        <ele>1922.37</ele>
        <time>2018-06-23T10:59:29Z</time>
      </trkpt>
      <trkpt lat="45.11439" lon="5.90198">
        <ele>1921.39</ele>
        <time>2018-06-23T10:59:43Z</time>
      </trkpt>
      <trkpt lat="45.11423" lon="5.90211">
        <ele>1920.09</ele>
        <time>2018-06-23T11:00:00Z</time>
      </trkpt>
      <trkpt lat="45.11408" lon="5.90225">
        <ele>1915.01</ele>
        <time>2018-06-23T11:00:35Z</time>
      </trkpt>
      <trkpt lat="45.1142" lon="5.90244">
        <ele>1922.83</ele>
        <time>2018-06-23T11:01:47Z</time>
      </trkpt>
      <trkpt lat="45.11435" lon="5.9026">
        <ele>1926.41</ele>
        <time>2018-06-23T11:02:13Z</time>
      </trkpt>
      <trkpt lat="45.11451" lon="5.90274">
        <ele>1932.06</ele>
        <time>2018-06-23T11:02:48Z</time>
      </trkpt>
      <trkpt lat="45.11463" lon="5.90294">
        <ele>1939.89</ele>
        <time>2018-06-23T11:03:10Z</time>
      </trkpt>
      <trkpt lat="45.11464" lon="5.90319">
        <ele>1940.5</ele>
        <time>2018-06-23T11:03:47Z</time>
      </trkpt>
      <trkpt lat="45.1146" lon="5.90345">
        <ele>1944.57</ele>
        <time>2018-06-23T11:04:15Z</time>
      </trkpt>
      <trkpt lat="45.11444" lon="5.90361">
        <ele>1951.16</ele>
        <time>2018-06-23T11:04:49Z</time>
      </trkpt>
      <trkpt lat="45.11457" lon="5.90382">
        <ele>1955.05</ele>
        <time>2018-06-23T11:05:35Z</time>
      </trkpt>
      <trkpt lat="45.11476" lon="5.90386">
        <ele>1955.29</ele>
        <time>2018-06-23T11:05:56Z</time>
      </trkpt>
      <trkpt lat="45.11492" lon="5.90399">
        <ele>1957.22</ele>
        <time>2018-06-23T11:06:20Z</time>
      </trkpt>
      <trkpt lat="45.11499" lon="5.90424">
        <ele>1956.53</ele>
        <time>2018-06-23T11:06:42Z</time>
      </trkpt>
      <trkpt lat="45.11513" lon="5.90441">
        <ele>1957.75</ele>
        <time>2018-06-23T11:07:05Z</time>
      </trkpt>
      <trkpt lat="45.11531" lon="5.90447">
        <ele>1959.84</ele>
        <time>2018-06-23T11:07:38Z</time>
      </trkpt>
      <trkpt lat="45.1155" lon="5.90456">
        <ele>1965.24</ele>
        <time>2018-06-23T11:08:04Z</time>
      </trkpt>
      <trkpt lat="45.11568" lon="5.90459">
        <ele>1970.98</ele>
        <time>2018-06-23T11:08:27Z</time>
      </trkpt>
      <trkpt lat="45.11586" lon="5.90461">
        <ele>1977.83</ele>
        <time>2018-06-23T11:08:57Z</time>
      </trkpt>
      <trkpt lat="45.11605" lon="5.90465">
        <ele>1982.41</ele>
        <time>2018-06-23T11:09:30Z</time>
      </trkpt>
      <trkpt lat="45.11623" lon="5.9047">
        <ele>1983.55</ele>
        <time>2018-06-23T11:10:10Z</time>
      </trkpt>
      <trkpt lat="45.11641" lon="5.90478">
        <ele>1984.99</ele>
        <time>2018-06-23T11:10:37Z</time>
      </trkpt>
      <trkpt lat="45.11657" lon="5.9049">
        <ele>1988.81</ele>
        <time>2018-06-23T11:11:13Z</time>
      </trkpt>
      <trkpt lat="45.11676" lon="5.9049">
        <ele>1991.04</ele>
        <time>2018-06-23T11:11:40Z</time>
      </trkpt>
      <trkpt lat="45.1169" lon="5.90507">
        <ele>1993.41</ele>
        <time>2018-06-23T11:12:19Z</time>
      </trkpt>
      <trkpt lat="45.11707" lon="5.90515">
        <ele>1998.89</ele>
        <time>2018-06-23T11:12:52Z</time>
      </trkpt>
      <trkpt lat="45.1172" lon="5.90536">
        <ele>2003.94</ele>
        <time>2018-06-23T11:13:21Z</time>
      </trkpt>
      <trkpt lat="45.11737" lon="5.90544">
        <ele>2011.75</ele>
        <time>2018-06-23T11:14:01Z</time>
      </trkpt>
      <trkpt lat="45.11752" lon="5.90559">
        <ele>2021.29</ele>
        <time>2018-06-23T11:14:46Z</time>
      </trkpt>
      <trkpt lat="45.11767" lon="5.90573">
        <ele>2027.57</ele>
        <time>2018-06-23T11:15:30Z</time>
      </trkpt>
      <trkpt lat="45.11785" lon="5.9058">
        <ele>2037.73</ele>
        <time>2018-06-23T11:17:14Z</time>
      </trkpt>
      <trkpt lat="45.11795" lon="5.90602">
        <ele>2039</ele>
        <time>2018-06-23T11:17:34Z</time>
      </trkpt>
      <trkpt lat="45.11809" lon="5.9062">
        <ele>2039.19</ele>
        <time>2018-06-23T11:17:56Z</time>
      </trkpt>
      <trkpt lat="45.11821" lon="5.90639">
        <ele>2039.67</ele>
        <time>2018-06-23T11:18:17Z</time>
      </trkpt>
      <trkpt lat="45.11839" lon="5.90647">
        <ele>2039.94</ele>
        <time>2018-06-23T11:18:37Z</time>
      </trkpt>
      <trkpt lat="45.11855" lon="5.90659">
        <ele>2040.73</ele>
        <time>2018-06-23T11:18:58Z</time>
      </trkpt>
      <trkpt lat="45.11864" lon="5.90681">
        <ele>2041.77</ele>
        <time>2018-06-23T11:19:22Z</time>
      </trkpt>
      <trkpt lat="45.11879" lon="5.90698">
        <ele>2041.81</ele>
        <time>2018-06-23T11:19:50Z</time>
      </trkpt>
      <trkpt lat="45.11892" lon="5.90716">
        <ele>2042.5</ele>
        <time>2018-06-23T11:20:09Z</time>
      </trkpt>
      <trkpt lat="45.11909" lon="5.90728">
        <ele>2044.5</ele>
        <time>2018-06-23T11:20:32Z</time>
      </trkpt>
      <trkpt lat="45.11925" lon="5.90744">
        <ele>2045.82</ele>
        <time>2018-06-23T11:21:07Z</time>
      </trkpt>
      <trkpt lat="45.1194" lon="5.9076">
        <ele>2045.8</ele>
        <time>2018-06-23T11:21:38Z</time>
      </trkpt>
      <trkpt lat="45.11956" lon="5.90775">
        <ele>2044.29</ele>
        <time>2018-06-23T11:21:58Z</time>
      </trkpt>
      <trkpt lat="45.11969" lon="5.90792">
        <ele>2044.53</ele>
        <time>2018-06-23T11:22:39Z</time>
      </trkpt>
      <trkpt lat="45.11966" lon="5.90817">
        <ele>2050.04</ele>
        <time>2018-06-23T11:23:14Z</time>
      </trkpt>
      <trkpt lat="45.11977" lon="5.90841">
        <ele>2056.65</ele>
        <time>2018-06-23T11:23:37Z</time>
      </trkpt>
      <trkpt lat="45.11994" lon="5.90851">
        <ele>2058.46</ele>
        <time>2018-06-23T11:24:16Z</time>
      </trkpt>
      <trkpt lat="45.1201" lon="5.90839">
        <ele>2064.07</ele>
        <time>2018-06-23T11:25:06Z</time>
      </trkpt>
      <trkpt lat="45.12027" lon="5.90851">
        <ele>2071.68</ele>
        <time>2018-06-23T11:26:03Z</time>
      </trkpt>
      <trkpt lat="45.12044" lon="5.90856">
        <ele>2067.73</ele>
        <time>2018-06-23T11:26:31Z</time>
      </trkpt>
      <trkpt lat="45.12062" lon="5.90869">
        <ele>2062.5</ele>
        <time>2018-06-23T11:26:51Z</time>
      </trkpt>
      <trkpt lat="45.12079" lon="5.90878">
        <ele>2059.18</ele>
        <time>2018-06-23T11:27:11Z</time>
      </trkpt>
      <trkpt lat="45.12088" lon="5.90903">
        <ele>2058.68</ele>
        <time>2018-06-23T11:27:30Z</time>
      </trkpt>
      <trkpt lat="45.12101" lon="5.90922">
        <ele>2055.73</ele>
        <time>2018-06-23T11:27:54Z</time>
      </trkpt>
      <trkpt lat="45.12117" lon="5.90936">
        <ele>2056.33</ele>
        <time>2018-06-23T11:28:17Z</time>
      </trkpt>
      <trkpt lat="45.12135" lon="5.90935">
        <ele>2058.57</ele>
        <time>2018-06-23T11:28:40Z</time>
      </trkpt>
      <trkpt lat="45.12148" lon="5.90952">
        <ele>2063.05</ele>
        <time>2018-06-23T11:29:13Z</time>
      </trkpt>
      <trkpt lat="45.12163" lon="5.90967">
        <ele>2061.22</ele>
        <time>2018-06-23T11:29:33Z</time>
      </trkpt>
      <trkpt lat="45.12181" lon="5.9097">
        <ele>2061.93</ele>
        <time>2018-06-23T11:30:17Z</time>
      </trkpt>
      <trkpt lat="45.12201" lon="5.90978">
        <ele>2060.33</ele>
        <time>2018-06-23T11:30:56Z</time>
      </trkpt>
      <trkpt lat="45.12217" lon="5.90992">
        <ele>2061.86</ele>
        <time>2018-06-23T11:31:28Z</time>
      </trkpt>
      <trkpt lat="45.12234" lon="5.91002">
        <ele>2062.77</ele>
        <time>2018-06-23T11:31:49Z</time>
      </trkpt>
      <trkpt lat="45.12253" lon="5.90998">
        <ele>2061.53</ele>
        <time>2018-06-23T11:32:13Z</time>
      </trkpt>
      <trkpt lat="45.1227" lon="5.91006">
        <ele>2062.57</ele>
        <time>2018-06-23T11:32:31Z</time>
      </trkpt>
      <trkpt lat="45.12285" lon="5.91021">
        <ele>2065.41</ele>
        <time>2018-06-23T11:32:48Z</time>
      </trkpt>
      <trkpt lat="45.123" lon="5.91038">
        <ele>2067.26</ele>
        <time>2018-06-23T11:33:07Z</time>
      </trkpt>
      <trkpt lat="45.12317" lon="5.91051">
        <ele>2070.25</ele>
        <time>2018-06-23T11:33:26Z</time>
      </trkpt>
      <trkpt lat="45.12335" lon="5.91049">
        <ele>2074.49</ele>
        <time>2018-06-23T11:33:49Z</time>
      </trkpt>
      <trkpt lat="45.12353" lon="5.91044">
        <ele>2077.39</ele>
        <time>2018-06-23T11:34:15Z</time>
      </trkpt>
      <trkpt lat="45.1237" lon="5.91033">
        <ele>2081.16</ele>
        <time>2018-06-23T11:34:38Z</time>
      </trkpt>
      <trkpt lat="45.12386" lon="5.91019">
        <ele>2083.35</ele>
        <time>2018-06-23T11:34:56Z</time>
      </trkpt>
      <trkpt lat="45.12402" lon="5.91008">
        <ele>2080.85</ele>
        <time>2018-06-23T11:35:34Z</time>
      </trkpt>
      <trkpt lat="45.12405" lon="5.90981">
        <ele>2078.58</ele>
        <time>2018-06-23T11:35:54Z</time>
      </trkpt>
      <trkpt lat="45.12415" lon="5.9096">
        <ele>2082.57</ele>
        <time>2018-06-23T11:36:30Z</time>
      </trkpt>
      <trkpt lat="45.12413" lon="5.90934">
        <ele>2090.03</ele>
        <time>2018-06-23T11:37:00Z</time>
      </trkpt>
      <trkpt lat="45.12422" lon="5.90911">
        <ele>2101.2</ele>
        <time>2018-06-23T11:38:10Z</time>
      </trkpt>
      <trkpt lat="45.12438" lon="5.90899">
        <ele>2106.69</ele>
        <time>2018-06-23T11:39:14Z</time>
      </trkpt>
      <trkpt lat="45.12457" lon="5.90892">
        <ele>2113.72</ele>
        <time>2018-06-23T11:39:54Z</time>
      </trkpt>
      <trkpt lat="45.12457" lon="5.90918">
        <ele>2124.23</ele>
        <time>2018-06-23T11:41:07Z</time>
      </trkpt>
      <trkpt lat="45.12463" lon="5.90944">
        <ele>2119.92</ele>
        <time>2018-06-23T11:41:43Z</time>
      </trkpt>
      <trkpt lat="45.12476" lon="5.90925">
        <ele>2126.1</ele>
        <time>2018-06-23T11:42:30Z</time>
      </trkpt>
      <trkpt lat="45.12493" lon="5.90936">
        <ele>2138.83</ele>
        <time>2018-06-23T11:43:19Z</time>
      </trkpt>
      <trkpt lat="45.12502" lon="5.90958">
        <ele>2139.73</ele>
        <time>2018-06-23T11:43:43Z</time>
      </trkpt>
      <trkpt lat="45.12513" lon="5.90981">
        <ele>2143.48</ele>
        <time>2018-06-23T11:44:20Z</time>
      </trkpt>
      <trkpt lat="45.1252" lon="5.91006">
        <ele>2147.32</ele>
        <time>2018-06-23T11:44:48Z</time>
      </trkpt>
      <trkpt lat="45.12524" lon="5.91031">
        <ele>2150.32</ele>
        <time>2018-06-23T11:45:16Z</time>
      </trkpt>
      <trkpt lat="45.12522" lon="5.91056">
        <ele>2153.35</ele>
        <time>2018-06-23T11:45:46Z</time>
      </trkpt>
      <trkpt lat="45.12519" lon="5.91082">
        <ele>2157.54</ele>
        <time>2018-06-23T11:46:15Z</time>
      </trkpt>
      <trkpt lat="45.12513" lon="5.91107">
        <ele>2159.84</ele>
        <time>2018-06-23T11:46:44Z</time>
      </trkpt>
      <trkpt lat="45.12517" lon="5.91133">
        <ele>2162.3</ele>
        <time>2018-06-23T11:47:12Z</time>
      </trkpt>
      <trkpt lat="45.12526" lon="5.91163">
        <ele>2167.31</ele>
        <time>2018-06-23T11:48:12Z</time>
      </trkpt>
      <trkpt lat="45.12511" lon="5.91178">
        <ele>2178.93</ele>
        <time>2018-06-23T11:48:49Z</time>
      </trkpt>
      <trkpt lat="45.12501" lon="5.91201">
        <ele>2180.07</ele>
        <time>2018-06-23T11:53:01Z</time>
      </trkpt>
      <trkpt lat="45.12516" lon="5.91215">
        <ele>2180.05</ele>
        <time>2018-06-23T11:53:20Z</time>
      </trkpt>
      <trkpt lat="45.12531" lon="5.91232">
        <ele>2179.23</ele>
        <time>2018-06-23T11:53:39Z</time>
      </trkpt>
      <trkpt lat="45.12545" lon="5.91249">
        <ele>2179.41</ele>
        <time>2018-06-23T11:53:58Z</time>
      </trkpt>
      <trkpt lat="45.12558" lon="5.91267">
        <ele>2177.92</ele>
        <time>2018-06-23T11:54:17Z</time>
      </trkpt>
      <trkpt lat="45.1257" lon="5.91286">
        <ele>2175.21</ele>
        <time>2018-06-23T11:54:35Z</time>
      </trkpt>
      <trkpt lat="45.12582" lon="5.91305">
        <ele>2170.45</ele>
        <time>2018-06-23T11:54:55Z</time>
      </trkpt>
      <trkpt lat="45.12594" lon="5.91325">
        <ele>2167.34</ele>
        <time>2018-06-23T11:55:12Z</time>
      </trkpt>
      <trkpt lat="45.12597" lon="5.91351">
        <ele>2164.47</ele>
        <time>2018-06-23T11:55:29Z</time>
      </trkpt>
      <trkpt lat="45.12605" lon="5.91375">
        <ele>2160.9</ele>
        <time>2018-06-23T11:55:50Z</time>
      </trkpt>
      <trkpt lat="45.12617" lon="5.91395">
        <ele>2155.26</ele>
        <time>2018-06-23T11:56:20Z</time>
      </trkpt>
      <trkpt lat="45.12634" lon="5.91407">
        <ele>2152.54</ele>
        <time>2018-06-23T11:56:36Z</time>
      </trkpt>
      <trkpt lat="45.12649" lon="5.91423">
        <ele>2144.95</ele>
        <time>2018-06-23T11:57:22Z</time>
      </trkpt>
      <trkpt lat="45.12655" lon="5.91448">
        <ele>2140.2</ele>
        <time>2018-06-23T11:57:41Z</time>
      </trkpt>
      <trkpt lat="45.12665" lon="5.9147">
        <ele>2140.41</ele>
        <time>2018-06-23T11:58:09Z</time>
      </trkpt>
      <trkpt lat="45.12673" lon="5.91493">
        <ele>2139.44</ele>
        <time>2018-06-23T11:58:26Z</time>
      </trkpt>
      <trkpt lat="45.12679" lon="5.91517">
        <ele>2135.08</ele>
        <time>2018-06-23T11:58:45Z</time>
      </trkpt>
      <trkpt lat="45.12684" lon="5.91542">
        <ele>2130.37</ele>
        <time>2018-06-23T11:59:03Z</time>
      </trkpt>
      <trkpt lat="45.12689" lon="5.91568">
        <ele>2126.77</ele>
        <time>2018-06-23T11:59:23Z</time>
      </trkpt>
      <trkpt lat="45.1269" lon="5.91593">
        <ele>2128.38</ele>
        <time>2018-06-23T11:59:50Z</time>
      </trkpt>
      <trkpt lat="45.12697" lon="5.91617">
        <ele>2132.49</ele>
        <time>2018-06-23T12:00:18Z</time>
      </trkpt>
      <trkpt lat="45.12707" lon="5.91639">
        <ele>2135.33</ele>
        <time>2018-06-23T12:00:42Z</time>
      </trkpt>
      <trkpt lat="45.12715" lon="5.91663">
        <ele>2136.02</ele>
        <time>2018-06-23T12:01:02Z</time>
      </trkpt>
      <trkpt lat="45.12722" lon="5.91687">
        <ele>2135.59</ele>
        <time>2018-06-23T12:01:19Z</time>
      </trkpt>
      <trkpt lat="45.12726" lon="5.91712">
        <ele>2134.28</ele>
        <time>2018-06-23T12:01:35Z</time>
      </trkpt>
      <trkpt lat="45.12734" lon="5.91736">
        <ele>2130.8</ele>
        <time>2018-06-23T12:01:53Z</time>
      </trkpt>
      <trkpt lat="45.12745" lon="5.91758">
        <ele>2125.95</ele>
        <time>2018-06-23T12:02:12Z</time>
      </trkpt>
      <trkpt lat="45.12757" lon="5.91777">
        <ele>2122.43</ele>
        <time>2018-06-23T12:02:35Z</time>
      </trkpt>
      <trkpt lat="45.12767" lon="5.91799">
        <ele>2121.07</ele>
        <time>2018-06-23T12:02:51Z</time>
      </trkpt>
      <trkpt lat="45.12775" lon="5.91821">
        <ele>2118.87</ele>
        <time>2018-06-23T12:03:06Z</time>
      </trkpt>
      <trkpt lat="45.12789" lon="5.91839">
        <ele>2115.98</ele>
        <time>2018-06-23T12:03:48Z</time>
      </trkpt>
      <trkpt lat="45.12799" lon="5.91862">
        <ele>2111.37</ele>
        <time>2018-06-23T12:04:23Z</time>
      </trkpt>
      <trkpt lat="45.12813" lon="5.91878">
        <ele>2110.11</ele>
        <time>2018-06-23T12:04:50Z</time>
      </trkpt>
      <trkpt lat="45.12825" lon="5.91899">
        <ele>2110.78</ele>
        <time>2018-06-23T12:05:13Z</time>
      </trkpt>
      <trkpt lat="45.12835" lon="5.9192">
        <ele>2110.31</ele>
        <time>2018-06-23T12:05:39Z</time>
      </trkpt>
      <trkpt lat="45.12843" lon="5.91943">
        <ele>2108.71</ele>
        <time>2018-06-23T12:05:58Z</time>
      </trkpt>
      <trkpt lat="45.12855" lon="5.91963">
        <ele>2107.81</ele>
        <time>2018-06-23T12:06:18Z</time>
      </trkpt>
      <trkpt lat="45.12871" lon="5.91976">
        <ele>2108.6</ele>
        <time>2018-06-23T12:06:41Z</time>
      </trkpt>
      <trkpt lat="45.12882" lon="5.91955">
        <ele>2108.43</ele>
        <time>2018-06-23T12:07:29Z</time>
      </trkpt>
      <trkpt lat="45.12899" lon="5.91948">
        <ele>2100.64</ele>
        <time>2018-06-23T12:08:48Z</time>
      </trkpt>
      <trkpt lat="45.12907" lon="5.91925">
        <ele>2087.42</ele>
        <time>2018-06-23T12:10:50Z</time>
      </trkpt>
      <trkpt lat="45.12912" lon="5.91899">
        <ele>2081.61</ele>
        <time>2018-06-23T12:11:43Z</time>
      </trkpt>
      <trkpt lat="45.12916" lon="5.91874">
        <ele>2074.9</ele>
        <time>2018-06-23T12:12:10Z</time>
      </trkpt>
      <trkpt lat="45.12918" lon="5.91849">
        <ele>2072.51</ele>
        <time>2018-06-23T12:12:53Z</time>
      </trkpt>
      <trkpt lat="45.1292" lon="5.91823">
        <ele>2070.46</ele>
        <time>2018-06-23T12:13:13Z</time>
      </trkpt>
      <trkpt lat="45.12922" lon="5.91797">
        <ele>2064.59</ele>
        <time>2018-06-23T12:13:46Z</time>
      </trkpt>
      <trkpt lat="45.12939" lon="5.91791">
        <ele>2055.57</ele>
        <time>2018-06-23T12:14:24Z</time>
      </trkpt>
      <trkpt lat="45.12949" lon="5.91768">
        <ele>2048.4</ele>
        <time>2018-06-23T12:14:54Z</time>
      </trkpt>
      <trkpt lat="45.12962" lon="5.91748">
        <ele>2043.06</ele>
        <time>2018-06-23T12:15:14Z</time>
      </trkpt>
      <trkpt lat="45.12977" lon="5.91734">
        <ele>2037.72</ele>
        <time>2018-06-23T12:15:37Z</time>
      </trkpt>
      <trkpt lat="45.1299" lon="5.91715">
        <ele>2030.33</ele>
        <time>2018-06-23T12:16:05Z</time>
      </trkpt>
      <trkpt lat="45.13002" lon="5.91694">
        <ele>2024.5</ele>
        <time>2018-06-23T12:16:35Z</time>
      </trkpt>
      <trkpt lat="45.13017" lon="5.91679">
        <ele>2020.94</ele>
        <time>2018-06-23T12:16:54Z</time>
      </trkpt>
      <trkpt lat="45.13029" lon="5.91659">
        <ele>2017.09</ele>
        <time>2018-06-23T12:17:17Z</time>
      </trkpt>
      <trkpt lat="45.13038" lon="5.91635">
        <ele>2014.29</ele>
        <time>2018-06-23T12:17:37Z</time>
      </trkpt>
      <trkpt lat="45.13048" lon="5.91613">
        <ele>2012.84</ele>
        <time>2018-06-23T12:17:55Z</time>
      </trkpt>
      <trkpt lat="45.13053" lon="5.91588">
        <ele>2011.64</ele>
        <time>2018-06-23T12:18:15Z</time>
      </trkpt>
      <trkpt lat="45.13058" lon="5.91562">
        <ele>2009.49</ele>
        <time>2018-06-23T12:18:37Z</time>
      </trkpt>
      <trkpt lat="45.13049" lon="5.9154">
        <ele>2006.08</ele>
        <time>2018-06-23T12:19:11Z</time>
      </trkpt>
      <trkpt lat="45.13042" lon="5.91516">
        <ele>1999.01</ele>
        <time>2018-06-23T12:28:54Z</time>
      </trkpt>
      <trkpt lat="45.13037" lon="5.91491">
        <ele>2001.49</ele>
        <time>2018-06-23T12:31:14Z</time>
      </trkpt>
      <trkpt lat="45.13036" lon="5.91466">
        <ele>2000.94</ele>
        <time>2018-06-23T12:32:34Z</time>
      </trkpt>
      <trkpt lat="45.13034" lon="5.9144">
        <ele>1999.94</ele>
        <time>2018-06-23T12:34:12Z</time>
      </trkpt>
      <trkpt lat="45.13032" lon="5.91414">
        <ele>1997.88</ele>
        <time>2018-06-23T12:34:58Z</time>
      </trkpt>
      <trkpt lat="45.13033" lon="5.91388">
        <ele>1997.71</ele>
        <time>2018-06-23T12:35:50Z</time>
      </trkpt>
      <trkpt lat="45.13033" lon="5.91363">
        <ele>1996.34</ele>
        <time>2018-06-23T12:36:55Z</time>
      </trkpt>
      <trkpt lat="45.13039" lon="5.91338">
        <ele>1996.26</ele>
        <time>2018-06-23T12:37:21Z</time>
      </trkpt>
      <trkpt lat="45.13041" lon="5.91313">
        <ele>1996.15</ele>
        <time>2018-06-23T12:38:09Z</time>
      </trkpt>
      <trkpt lat="45.13048" lon="5.91289">
        <ele>1996.13</ele>
        <time>2018-06-23T12:38:39Z</time>
      </trkpt>
      <trkpt lat="45.13053" lon="5.91264">
        <ele>1995.07</ele>
        <time>2018-06-23T12:39:17Z</time>
      </trkpt>
      <trkpt lat="45.13061" lon="5.91242">
        <ele>1995.98</ele>
        <time>2018-06-23T12:40:10Z</time>
      </trkpt>
      <trkpt lat="45.13075" lon="5.91225">
        <ele>1998.1</ele>
        <time>2018-06-23T12:40:45Z</time>
      </trkpt>
      <trkpt lat="45.13089" lon="5.91206">
        <ele>1998.11</ele>
        <time>2018-06-23T12:41:38Z</time>
      </trkpt>
      <trkpt lat="45.13105" lon="5.91196">
        <ele>1994.53</ele>
        <time>2018-06-23T12:42:43Z</time>
      </trkpt>
      <trkpt lat="45.13123" lon="5.91203">
        <ele>1995.4</ele>
        <time>2018-06-23T12:43:07Z</time>
      </trkpt>
      <trkpt lat="45.1314" lon="5.9119">
        <ele>1995.63</ele>
        <time>2018-06-23T12:44:03Z</time>
      </trkpt>
      <trkpt lat="45.13147" lon="5.9116">
        <ele>1999.25</ele>
        <time>2018-06-23T12:52:13Z</time>
      </trkpt>
      <trkpt lat="45.13144" lon="5.91188">
        <ele>1998.49</ele>
        <time>2018-06-23T12:53:33Z</time>
      </trkpt>
      <trkpt lat="45.13136" lon="5.91164">
        <ele>2000.05</ele>
        <time>2018-06-23T12:53:53Z</time>
      </trkpt>
      <trkpt lat="45.13149" lon="5.91182">
        <ele>2001.43</ele>
        <time>2018-06-23T13:01:23Z</time>
      </trkpt>
      <trkpt lat="45.13161" lon="5.91163">
        <ele>2000.67</ele>
        <time>2018-06-23T13:05:01Z</time>
      </trkpt>
      <trkpt lat="45.1317" lon="5.91141">
        <ele>2003.67</ele>
        <time>2018-06-23T13:07:24Z</time>
      </trkpt>
      <trkpt lat="45.13175" lon="5.91116">
        <ele>2005.85</ele>
        <time>2018-06-23T13:07:53Z</time>
      </trkpt>
      <trkpt lat="45.13185" lon="5.91093">
        <ele>2006.59</ele>
        <time>2018-06-23T13:08:21Z</time>
      </trkpt>
      <trkpt lat="45.13189" lon="5.91068">
        <ele>2009.12</ele>
        <time>2018-06-23T13:08:45Z</time>
      </trkpt>
      <trkpt lat="45.13187" lon="5.91041">
        <ele>2014.96</ele>
        <time>2018-06-23T13:09:20Z</time>
      </trkpt>
      <trkpt lat="45.13188" lon="5.91015">
        <ele>2020.08</ele>
        <time>2018-06-23T13:09:57Z</time>
      </trkpt>
      <trkpt lat="45.13173" lon="5.90998">
        <ele>2025.39</ele>
        <time>2018-06-23T13:10:28Z</time>
      </trkpt>
      <trkpt lat="45.13171" lon="5.90972">
        <ele>2030.9</ele>
        <time>2018-06-23T13:11:01Z</time>
      </trkpt>
      <trkpt lat="45.13176" lon="5.90947">
        <ele>2032.19</ele>
        <time>2018-06-23T13:11:23Z</time>
      </trkpt>
      <trkpt lat="45.13183" lon="5.90923">
        <ele>2032.13</ele>
        <time>2018-06-23T13:11:43Z</time>
      </trkpt>
      <trkpt lat="45.13176" lon="5.90898">
        <ele>2031.11</ele>
        <time>2018-06-23T13:12:05Z</time>
      </trkpt>
      <trkpt lat="45.1319" lon="5.9088">
        <ele>2033.1</ele>
        <time>2018-06-23T13:12:41Z</time>
      </trkpt>
      <trkpt lat="45.13181" lon="5.90858">
        <ele>2031.41</ele>
        <time>2018-06-23T13:13:20Z</time>
      </trkpt>
      <trkpt lat="45.13166" lon="5.90842">
        <ele>2032.69</ele>
        <time>2018-06-23T13:14:18Z</time>
      </trkpt>
      <trkpt lat="45.13171" lon="5.90816">
        <ele>2036.8</ele>
        <time>2018-06-23T13:15:13Z</time>
      </trkpt>
      <trkpt lat="45.13168" lon="5.90786">
        <ele>2038.38</ele>
        <time>2018-06-23T13:15:50Z</time>
      </trkpt>
      <trkpt lat="45.13158" lon="5.90764">
        <ele>2036.75</ele>
        <time>2018-06-23T13:17:10Z</time>
      </trkpt>
      <trkpt lat="45.13157" lon="5.90738">
        <ele>2036.01</ele>
        <time>2018-06-23T13:17:56Z</time>
      </trkpt>
      <trkpt lat="45.13147" lon="5.90716">
        <ele>2036.08</ele>
        <time>2018-06-23T13:18:35Z</time>
      </trkpt>
      <trkpt lat="45.13147" lon="5.9069">
        <ele>2034.3</ele>
        <time>2018-06-23T13:19:17Z</time>
      </trkpt>
      <trkpt lat="45.13142" lon="5.90666">
        <ele>2034.01</ele>
        <time>2018-06-23T13:20:07Z</time>
      </trkpt>
      <trkpt lat="45.13155" lon="5.90648">
        <ele>2037.47</ele>
        <time>2018-06-23T13:20:48Z</time>
      </trkpt>
      <trkpt lat="45.13163" lon="5.90626">
        <ele>2044.27</ele>
        <time>2018-06-23T13:21:39Z</time>
      </trkpt>
      <trkpt lat="45.13155" lon="5.90603">
        <ele>2045.4</ele>
        <time>2018-06-23T13:22:16Z</time>
      </trkpt>
      <trkpt lat="45.13151" lon="5.90578">
        <ele>2042.86</ele>
        <time>2018-06-23T13:22:53Z</time>
      </trkpt>
      <trkpt lat="45.13144" lon="5.90554">
        <ele>2036.92</ele>
        <time>2018-06-23T13:23:50Z</time>
      </trkpt>
      <trkpt lat="45.13131" lon="5.90535">
        <ele>2032.18</ele>
        <time>2018-06-23T13:24:17Z</time>
      </trkpt>
      <trkpt lat="45.13129" lon="5.90509">
        <ele>2024.1</ele>
        <time>2018-06-23T13:25:10Z</time>
      </trkpt>
      <trkpt lat="45.13123" lon="5.90485">
        <ele>2020.53</ele>
        <time>2018-06-23T13:26:46Z</time>
      </trkpt>
      <trkpt lat="45.13125" lon="5.9046">
        <ele>2019.81</ele>
        <time>2018-06-23T13:27:29Z</time>
      </trkpt>
      <trkpt lat="45.13126" lon="5.90434">
        <ele>2023.01</ele>
        <time>2018-06-23T13:28:01Z</time>
      </trkpt>
      <trkpt lat="45.13116" lon="5.90412">
        <ele>2024.28</ele>
        <time>2018-06-23T13:28:27Z</time>
      </trkpt>
      <trkpt lat="45.1311" lon="5.90387">
        <ele>2023.26</ele>
        <time>2018-06-23T13:28:46Z</time>
      </trkpt>
      <trkpt lat="45.13101" lon="5.90362">
        <ele>2022.38</ele>
        <time>2018-06-23T13:29:06Z</time>
      </trkpt>
      <trkpt lat="45.13094" lon="5.90338">
        <ele>2018.97</ele>
        <time>2018-06-23T13:29:33Z</time>
      </trkpt>
      <trkpt lat="45.13086" lon="5.90315">
        <ele>2014.15</ele>
        <time>2018-06-23T13:30:01Z</time>
      </trkpt>
      <trkpt lat="45.13073" lon="5.90293">
        <ele>2006.39</ele>
        <time>2018-06-23T13:30:34Z</time>
      </trkpt>
      <trkpt lat="45.13057" lon="5.90279">
        <ele>2000.74</ele>
        <time>2018-06-23T13:31:11Z</time>
      </trkpt>
      <trkpt lat="45.13045" lon="5.90258">
        <ele>1998.57</ele>
        <time>2018-06-23T13:31:31Z</time>
      </trkpt>
      <trkpt lat="45.13029" lon="5.90247">
        <ele>1995.87</ele>
        <time>2018-06-23T13:31:51Z</time>
      </trkpt>
      <trkpt lat="45.13021" lon="5.90224">
        <ele>1990.82</ele>
        <time>2018-06-23T13:32:42Z</time>
      </trkpt>
      <trkpt lat="45.13006" lon="5.90209">
        <ele>1987.1</ele>
        <time>2018-06-23T13:33:08Z</time>
      </trkpt>
      <trkpt lat="45.13" lon="5.90184">
        <ele>1984.22</ele>
        <time>2018-06-23T13:33:58Z</time>
      </trkpt>
      <trkpt lat="45.13004" lon="5.90158">
        <ele>1984.64</ele>
        <time>2018-06-23T13:34:29Z</time>
      </trkpt>
      <trkpt lat="45.13" lon="5.90133">
        <ele>1985.57</ele>
        <time>2018-06-23T13:34:51Z</time>
      </trkpt>
      <trkpt lat="45.13014" lon="5.90115">
        <ele>1983.41</ele>
        <time>2018-06-23T13:35:25Z</time>
      </trkpt>
      <trkpt lat="45.1301" lon="5.90089">
        <ele>1984.15</ele>
        <time>2018-06-23T13:35:46Z</time>
      </trkpt>
      <trkpt lat="45.13011" lon="5.90062">
        <ele>1981.26</ele>
        <time>2018-06-23T13:36:12Z</time>
      </trkpt>
      <trkpt lat="45.13012" lon="5.90036">
        <ele>1978.82</ele>
        <time>2018-06-23T13:36:32Z</time>
      </trkpt>
      <trkpt lat="45.13021" lon="5.90013">
        <ele>1976.62</ele>
        <time>2018-06-23T13:36:49Z</time>
      </trkpt>
      <trkpt lat="45.13012" lon="5.8999">
        <ele>1977.48</ele>
        <time>2018-06-23T13:37:09Z</time>
      </trkpt>
      <trkpt lat="45.1301" lon="5.89963">
        <ele>1977.73</ele>
        <time>2018-06-23T13:37:29Z</time>
      </trkpt>
      <trkpt lat="45.12997" lon="5.89945">
        <ele>1976.64</ele>
        <time>2018-06-23T13:37:47Z</time>
      </trkpt>
      <trkpt lat="45.12991" lon="5.8992">
        <ele>1975.82</ele>
        <time>2018-06-23T13:38:07Z</time>
      </trkpt>
      <trkpt lat="45.12986" lon="5.89895">
        <ele>1975.01</ele>
        <time>2018-06-23T13:39:36Z</time>
      </trkpt>
      <trkpt lat="45.12969" lon="5.89883">
        <ele>1974.25</ele>
        <time>2018-06-23T13:39:54Z</time>
      </trkpt>
      <trkpt lat="45.12955" lon="5.89865">
        <ele>1972.68</ele>
        <time>2018-06-23T13:40:10Z</time>
      </trkpt>
      <trkpt lat="45.12946" lon="5.89843">
        <ele>1970.85</ele>
        <time>2018-06-23T13:40:26Z</time>
      </trkpt>
      <trkpt lat="45.12938" lon="5.89819">
        <ele>1969.28</ele>
        <time>2018-06-23T13:40:47Z</time>
      </trkpt>
      <trkpt lat="45.12932" lon="5.89794">
        <ele>1968.42</ele>
        <time>2018-06-23T13:41:04Z</time>
      </trkpt>
      <trkpt lat="45.1292" lon="5.89773">
        <ele>1968.41</ele>
        <time>2018-06-23T13:41:26Z</time>
      </trkpt>
      <trkpt lat="45.12907" lon="5.89755">
        <ele>1967.97</ele>
        <time>2018-06-23T13:41:42Z</time>
      </trkpt>
      <trkpt lat="45.12895" lon="5.89735">
        <ele>1966.89</ele>
        <time>2018-06-23T13:42:02Z</time>
      </trkpt>
      <trkpt lat="45.12886" lon="5.89712">
        <ele>1965.29</ele>
        <time>2018-06-23T13:42:21Z</time>
      </trkpt>
      <trkpt lat="45.12875" lon="5.89691">
        <ele>1964.3</ele>
        <time>2018-06-23T13:42:38Z</time>
      </trkpt>
      <trkpt lat="45.12861" lon="5.89672">
        <ele>1963.92</ele>
        <time>2018-06-23T13:42:58Z</time>
      </trkpt>
      <trkpt lat="45.12847" lon="5.89656">
        <ele>1962.7</ele>
        <time>2018-06-23T13:43:26Z</time>
      </trkpt>
      <trkpt lat="45.12843" lon="5.8963">
        <ele>1959.68</ele>
        <time>2018-06-23T13:43:49Z</time>
      </trkpt>
      <trkpt lat="45.12837" lon="5.89606">
        <ele>1956.32</ele>
        <time>2018-06-23T13:44:09Z</time>
      </trkpt>
      <trkpt lat="45.12829" lon="5.89582">
        <ele>1953.95</ele>
        <time>2018-06-23T13:44:25Z</time>
      </trkpt>
      <trkpt lat="45.12821" lon="5.89559">
        <ele>1951.11</ele>
        <time>2018-06-23T13:44:42Z</time>
      </trkpt>
      <trkpt lat="45.12812" lon="5.89537">
        <ele>1947.33</ele>
        <time>2018-06-23T13:45:10Z</time>
      </trkpt>
      <trkpt lat="45.12808" lon="5.89511">
        <ele>1945.45</ele>
        <time>2018-06-23T13:45:30Z</time>
      </trkpt>
      <trkpt lat="45.12799" lon="5.89489">
        <ele>1943.75</ele>
        <time>2018-06-23T13:45:47Z</time>
      </trkpt>
      <trkpt lat="45.12793" lon="5.89464">
        <ele>1942.02</ele>
        <time>2018-06-23T13:46:04Z</time>
      </trkpt>
      <trkpt lat="45.12782" lon="5.89442">
        <ele>1940.52</ele>
        <time>2018-06-23T13:46:25Z</time>
      </trkpt>
      <trkpt lat="45.1278" lon="5.89416">
        <ele>1940.94</ele>
        <time>2018-06-23T13:47:01Z</time>
      </trkpt>
      <trkpt lat="45.12772" lon="5.89393">
        <ele>1942</ele>
        <time>2018-06-23T13:47:23Z</time>
      </trkpt>
      <trkpt lat="45.12764" lon="5.8937">
        <ele>1942.27</ele>
        <time>2018-06-23T13:47:41Z</time>
      </trkpt>
      <trkpt lat="45.12752" lon="5.8935">
        <ele>1942.42</ele>
        <time>2018-06-23T13:47:59Z</time>
      </trkpt>
      <trkpt lat="45.12738" lon="5.89333">
        <ele>1942.74</ele>
        <time>2018-06-23T13:48:17Z</time>
      </trkpt>
      <trkpt lat="45.12723" lon="5.89317">
        <ele>1941.78</ele>
        <time>2018-06-23T13:48:37Z</time>
      </trkpt>
      <trkpt lat="45.12728" lon="5.89292">
        <ele>1939.4</ele>
        <time>2018-06-23T13:49:18Z</time>
      </trkpt>
      <trkpt lat="45.12732" lon="5.89267">
        <ele>1936.04</ele>
        <time>2018-06-23T13:49:45Z</time>
      </trkpt>
      <trkpt lat="45.12735" lon="5.89241">
        <ele>1930.74</ele>
        <time>2018-06-23T13:50:14Z</time>
      </trkpt>
      <trkpt lat="45.12741" lon="5.89216">
        <ele>1919.78</ele>
        <time>2018-06-23T13:50:55Z</time>
      </trkpt>
      <trkpt lat="45.12748" lon="5.89192">
        <ele>1916.17</ele>
        <time>2018-06-23T13:51:26Z</time>
      </trkpt>
      <trkpt lat="45.1274" lon="5.89168">
        <ele>1914.92</ele>
        <time>2018-06-23T13:51:50Z</time>
      </trkpt>
      <trkpt lat="45.12736" lon="5.89143">
        <ele>1911.08</ele>
        <time>2018-06-23T13:52:12Z</time>
      </trkpt>
      <trkpt lat="45.12728" lon="5.89119">
        <ele>1904.93</ele>
        <time>2018-06-23T13:52:39Z</time>
      </trkpt>
      <trkpt lat="45.1272" lon="5.89095">
        <ele>1899.31</ele>
        <time>2018-06-23T13:52:59Z</time>
      </trkpt>
      <trkpt lat="45.1271" lon="5.89073">
        <ele>1893.97</ele>
        <time>2018-06-23T13:53:19Z</time>
      </trkpt>
      <trkpt lat="45.12716" lon="5.89048">
        <ele>1888.66</ele>
        <time>2018-06-23T13:53:43Z</time>
      </trkpt>
      <trkpt lat="45.12726" lon="5.89026">
        <ele>1885.94</ele>
        <time>2018-06-23T13:53:59Z</time>
      </trkpt>
      <trkpt lat="45.12717" lon="5.89004">
        <ele>1884.94</ele>
        <time>2018-06-23T13:54:19Z</time>
      </trkpt>
      <trkpt lat="45.1271" lon="5.88979">
        <ele>1881.55</ele>
        <time>2018-06-23T13:54:38Z</time>
      </trkpt>
      <trkpt lat="45.12712" lon="5.88954">
        <ele>1874.86</ele>
        <time>2018-06-23T13:54:59Z</time>
      </trkpt>
      <trkpt lat="45.12724" lon="5.88932">
        <ele>1871.11</ele>
        <time>2018-06-23T13:55:16Z</time>
      </trkpt>
      <trkpt lat="45.12737" lon="5.88912">
        <ele>1867.72</ele>
        <time>2018-06-23T13:55:36Z</time>
      </trkpt>
      <trkpt lat="45.1275" lon="5.88891">
        <ele>1862.99</ele>
        <time>2018-06-23T13:55:56Z</time>
      </trkpt>
      <trkpt lat="45.1276" lon="5.88869">
        <ele>1858.33</ele>
        <time>2018-06-23T13:56:15Z</time>
      </trkpt>
      <trkpt lat="45.12748" lon="5.88849">
        <ele>1849.17</ele>
        <time>2018-06-23T13:56:46Z</time>
      </trkpt>
      <trkpt lat="45.12731" lon="5.88839">
        <ele>1844.03</ele>
        <time>2018-06-23T13:57:07Z</time>
      </trkpt>
      <trkpt lat="45.12714" lon="5.88827">
        <ele>1840.99</ele>
        <time>2018-06-23T13:57:27Z</time>
      </trkpt>
      <trkpt lat="45.12697" lon="5.88818">
        <ele>1837.64</ele>
        <time>2018-06-23T13:57:43Z</time>
      </trkpt>
      <trkpt lat="45.1268" lon="5.88809">
        <ele>1833.15</ele>
        <time>2018-06-23T13:57:59Z</time>
      </trkpt>
      <trkpt lat="45.12666" lon="5.8879">
        <ele>1829.7</ele>
        <time>2018-06-23T13:58:14Z</time>
      </trkpt>
      <trkpt lat="45.12656" lon="5.88768">
        <ele>1826.75</ele>
        <time>2018-06-23T13:58:32Z</time>
      </trkpt>
      <trkpt lat="45.12645" lon="5.88746">
        <ele>1824.25</ele>
        <time>2018-06-23T13:58:49Z</time>
      </trkpt>
      <trkpt lat="45.12634" lon="5.88725">
        <ele>1821.59</ele>
        <time>2018-06-23T13:59:04Z</time>
      </trkpt>
      <trkpt lat="45.12621" lon="5.88707">
        <ele>1817.69</ele>
        <time>2018-06-23T13:59:23Z</time>
      </trkpt>
      <trkpt lat="45.12604" lon="5.88701">
        <ele>1815.84</ele>
        <time>2018-06-23T13:59:58Z</time>
      </trkpt>
      <trkpt lat="45.12591" lon="5.88683">
        <ele>1816.17</ele>
        <time>2018-06-23T14:00:15Z</time>
      </trkpt>
      <trkpt lat="45.12577" lon="5.88666">
        <ele>1815.24</ele>
        <time>2018-06-23T14:00:36Z</time>
      </trkpt>
      <trkpt lat="45.12565" lon="5.88644">
        <ele>1812.15</ele>
        <time>2018-06-23T14:00:54Z</time>
      </trkpt>
      <trkpt lat="45.12554" lon="5.88623">
        <ele>1808.17</ele>
        <time>2018-06-23T14:01:13Z</time>
      </trkpt>
      <trkpt lat="45.12547" lon="5.886">
        <ele>1803</ele>
        <time>2018-06-23T14:01:33Z</time>
      </trkpt>
      <trkpt lat="45.12537" lon="5.88578">
        <ele>1800.03</ele>
        <time>2018-06-23T14:01:49Z</time>
      </trkpt>
      <trkpt lat="45.12525" lon="5.88556">
        <ele>1794.58</ele>
        <time>2018-06-23T14:02:11Z</time>
      </trkpt>
      <trkpt lat="45.12516" lon="5.88534">
        <ele>1791.85</ele>
        <time>2018-06-23T14:02:31Z</time>
      </trkpt>
      <trkpt lat="45.12509" lon="5.8851">
        <ele>1789.76</ele>
        <time>2018-06-23T14:02:49Z</time>
      </trkpt>
      <trkpt lat="45.12506" lon="5.88484">
        <ele>1788.05</ele>
        <time>2018-06-23T14:03:04Z</time>
      </trkpt>
      <trkpt lat="45.1251" lon="5.88509">
        <ele>1779.4</ele>
        <time>2018-06-23T14:03:52Z</time>
      </trkpt>
      <trkpt lat="45.12513" lon="5.88535">
        <ele>1782.08</ele>
        <time>2018-06-23T14:04:25Z</time>
      </trkpt>
      <trkpt lat="45.12501" lon="5.88554">
        <ele>1785.66</ele>
        <time>2018-06-23T14:05:02Z</time>
      </trkpt>
      <trkpt lat="45.12482" lon="5.88555">
        <ele>1789.24</ele>
        <time>2018-06-23T14:05:31Z</time>
      </trkpt>
      <trkpt lat="45.12464" lon="5.88558">
        <ele>1791.76</ele>
        <time>2018-06-23T14:06:04Z</time>
      </trkpt>
      <trkpt lat="45.12446" lon="5.88563">
        <ele>1794.8</ele>
        <time>2018-06-23T14:06:36Z</time>
      </trkpt>
      <trkpt lat="45.12429" lon="5.88572">
        <ele>1800.29</ele>
        <time>2018-06-23T14:07:07Z</time>
      </trkpt>
      <trkpt lat="45.1241" lon="5.88572">
        <ele>1805.05</ele>
        <time>2018-06-23T14:07:37Z</time>
      </trkpt>
      <trkpt lat="45.12395" lon="5.88555">
        <ele>1806.62</ele>
        <time>2018-06-23T14:07:58Z</time>
      </trkpt>
      <trkpt lat="45.12378" lon="5.88545">
        <ele>1807.37</ele>
        <time>2018-06-23T14:08:14Z</time>
      </trkpt>
      <trkpt lat="45.1236" lon="5.88551">
        <ele>1808.82</ele>
        <time>2018-06-23T14:08:34Z</time>
      </trkpt>
      <trkpt lat="45.12343" lon="5.88559">
        <ele>1810.56</ele>
        <time>2018-06-23T14:08:54Z</time>
      </trkpt>
      <trkpt lat="45.12324" lon="5.88558">
        <ele>1812.24</ele>
        <time>2018-06-23T14:09:14Z</time>
      </trkpt>
      <trkpt lat="45.12305" lon="5.88555">
        <ele>1813.96</ele>
        <time>2018-06-23T14:09:36Z</time>
      </trkpt>
      <trkpt lat="45.12289" lon="5.88542">
        <ele>1815.29</ele>
        <time>2018-06-23T14:09:52Z</time>
      </trkpt>
      <trkpt lat="45.12275" lon="5.88524">
        <ele>1817.28</ele>
        <time>2018-06-23T14:10:09Z</time>
      </trkpt>
      <trkpt lat="45.12264" lon="5.88503">
        <ele>1819.88</ele>
        <time>2018-06-23T14:10:37Z</time>
      </trkpt>
      <trkpt lat="45.12251" lon="5.88484">
        <ele>1822.47</ele>
        <time>2018-06-23T14:11:00Z</time>
      </trkpt>
      <trkpt lat="45.12238" lon="5.88465">
        <ele>1822.81</ele>
        <time>2018-06-23T14:11:21Z</time>
      </trkpt>
      <trkpt lat="45.12224" lon="5.88448">
        <ele>1822.44</ele>
        <time>2018-06-23T14:11:42Z</time>
      </trkpt>
      <trkpt lat="45.12215" lon="5.88425">
        <ele>1822.24</ele>
        <time>2018-06-23T14:12:01Z</time>
      </trkpt>
      <trkpt lat="45.12208" lon="5.884">
        <ele>1821.32</ele>
        <time>2018-06-23T14:12:21Z</time>
      </trkpt>
      <trkpt lat="45.12204" lon="5.88376">
        <ele>1820.76</ele>
        <time>2018-06-23T14:12:39Z</time>
      </trkpt>
      <trkpt lat="45.12207" lon="5.8835">
        <ele>1822.39</ele>
        <time>2018-06-23T14:13:00Z</time>
      </trkpt>
      <trkpt lat="45.12196" lon="5.88328">
        <ele>1816.55</ele>
        <time>2018-06-23T14:14:06Z</time>
      </trkpt>
      <trkpt lat="45.12188" lon="5.88305">
        <ele>1815.16</ele>
        <time>2018-06-23T14:14:27Z</time>
      </trkpt>
      <trkpt lat="45.1219" lon="5.88278">
        <ele>1816.07</ele>
        <time>2018-06-23T14:14:49Z</time>
      </trkpt>
      <trkpt lat="45.12189" lon="5.88253">
        <ele>1817.42</ele>
        <time>2018-06-23T14:15:11Z</time>
      </trkpt>
      <trkpt lat="45.12176" lon="5.88235">
        <ele>1813.68</ele>
        <time>2018-06-23T14:15:56Z</time>
      </trkpt>
      <trkpt lat="45.1216" lon="5.88222">
        <ele>1811.47</ele>
        <time>2018-06-23T14:16:10Z</time>
      </trkpt>
      <trkpt lat="45.12144" lon="5.88208">
        <ele>1807.97</ele>
        <time>2018-06-23T14:16:32Z</time>
      </trkpt>
      <trkpt lat="45.12133" lon="5.88187">
        <ele>1806.23</ele>
        <time>2018-06-23T14:16:45Z</time>
      </trkpt>
      <trkpt lat="45.12118" lon="5.88173">
        <ele>1803.75</ele>
        <time>2018-06-23T14:17:15Z</time>
      </trkpt>
      <trkpt lat="45.12099" lon="5.88174">
        <ele>1801.95</ele>
        <time>2018-06-23T14:17:39Z</time>
      </trkpt>
      <trkpt lat="45.12081" lon="5.88173">
        <ele>1798.54</ele>
        <time>2018-06-23T14:18:00Z</time>
      </trkpt>
      <trkpt lat="45.12063" lon="5.88171">
        <ele>1796.3</ele>
        <time>2018-06-23T14:18:17Z</time>
      </trkpt>
      <trkpt lat="45.12045" lon="5.88163">
        <ele>1794.65</ele>
        <time>2018-06-23T14:18:37Z</time>
      </trkpt>
      <trkpt lat="45.12032" lon="5.88145">
        <ele>1794.22</ele>
        <time>2018-06-23T14:19:00Z</time>
      </trkpt>
      <trkpt lat="45.12022" lon="5.88124">
        <ele>1794.06</ele>
        <time>2018-06-23T14:19:36Z</time>
      </trkpt>
      <trkpt lat="45.12004" lon="5.88123">
        <ele>1793.91</ele>
        <time>2018-06-23T14:19:56Z</time>
      </trkpt>
      <trkpt lat="45.11985" lon="5.8812">
        <ele>1793.61</ele>
        <time>2018-06-23T14:20:10Z</time>
      </trkpt>
      <trkpt lat="45.11967" lon="5.88117">
        <ele>1793.59</ele>
        <time>2018-06-23T14:20:30Z</time>
      </trkpt>
      <trkpt lat="45.11949" lon="5.88118">
        <ele>1795.95</ele>
        <time>2018-06-23T14:21:00Z</time>
      </trkpt>
      <trkpt lat="45.11931" lon="5.88111">
        <ele>1798.59</ele>
        <time>2018-06-23T14:21:20Z</time>
      </trkpt>
      <trkpt lat="45.11916" lon="5.88096">
        <ele>1800.51</ele>
        <time>2018-06-23T14:21:39Z</time>
      </trkpt>
      <trkpt lat="45.11899" lon="5.88085">
        <ele>1801.97</ele>
        <time>2018-06-23T14:22:01Z</time>
      </trkpt>
      <trkpt lat="45.11883" lon="5.88073">
        <ele>1802.41</ele>
        <time>2018-06-23T14:22:24Z</time>
      </trkpt>
      <trkpt lat="45.11864" lon="5.88073">
        <ele>1804.27</ele>
        <time>2018-06-23T14:22:43Z</time>
      </trkpt>
      <trkpt lat="45.11846" lon="5.88072">
        <ele>1808.14</ele>
        <time>2018-06-23T14:23:06Z</time>
      </trkpt>
      <trkpt lat="45.11828" lon="5.88069">
        <ele>1809.65</ele>
        <time>2018-06-23T14:23:24Z</time>
      </trkpt>
      <trkpt lat="45.11809" lon="5.88065">
        <ele>1810.41</ele>
        <time>2018-06-23T14:23:41Z</time>
      </trkpt>
      <trkpt lat="45.11792" lon="5.88056">
        <ele>1810.67</ele>
        <time>2018-06-23T14:24:03Z</time>
      </trkpt>
      <trkpt lat="45.11775" lon="5.88045">
        <ele>1809.93</ele>
        <time>2018-06-23T14:24:18Z</time>
      </trkpt>
      <trkpt lat="45.11761" lon="5.8803">
        <ele>1808.74</ele>
        <time>2018-06-23T14:24:34Z</time>
      </trkpt>
      <trkpt lat="45.11749" lon="5.88011">
        <ele>1807.5</ele>
        <time>2018-06-23T14:24:48Z</time>
      </trkpt>
      <trkpt lat="45.11737" lon="5.8799">
        <ele>1806.4</ele>
        <time>2018-06-23T14:25:03Z</time>
      </trkpt>
      <trkpt lat="45.11721" lon="5.87977">
        <ele>1804.87</ele>
        <time>2018-06-23T14:25:23Z</time>
      </trkpt>
      <trkpt lat="45.11704" lon="5.87968">
        <ele>1805.57</ele>
        <time>2018-06-23T14:25:40Z</time>
      </trkpt>
      <trkpt lat="45.11686" lon="5.8796">
        <ele>1809.69</ele>
        <time>2018-06-23T14:27:02Z</time>
      </trkpt>
      <trkpt lat="45.11668" lon="5.87957">
        <ele>1807.67</ele>
        <time>2018-06-23T14:27:23Z</time>
      </trkpt>
      <trkpt lat="45.11654" lon="5.87939">
        <ele>1804.54</ele>
        <time>2018-06-23T14:28:04Z</time>
      </trkpt>
      <trkpt lat="45.11649" lon="5.87913">
        <ele>1800.77</ele>
        <time>2018-06-23T14:28:23Z</time>
      </trkpt>
      <trkpt lat="45.11631" lon="5.87905">
        <ele>1799.75</ele>
        <time>2018-06-23T14:28:42Z</time>
      </trkpt>
      <trkpt lat="45.11613" lon="5.87908">
        <ele>1798.87</ele>
        <time>2018-06-23T14:29:39Z</time>
      </trkpt>
      <trkpt lat="45.11597" lon="5.87897">
        <ele>1801.11</ele>
        <time>2018-06-23T14:31:16Z</time>
      </trkpt>
      <trkpt lat="45.11578" lon="5.87895">
        <ele>1800.85</ele>
        <time>2018-06-23T14:31:51Z</time>
      </trkpt>
      <trkpt lat="45.1156" lon="5.87888">
        <ele>1800.18</ele>
        <time>2018-06-23T14:32:13Z</time>
      </trkpt>
      <trkpt lat="45.11542" lon="5.87886">
        <ele>1800.37</ele>
        <time>2018-06-23T14:32:40Z</time>
      </trkpt>
      <trkpt lat="45.11524" lon="5.87877">
        <ele>1800.81</ele>
        <time>2018-06-23T14:33:03Z</time>
      </trkpt>
      <trkpt lat="45.11506" lon="5.87873">
        <ele>1803.64</ele>
        <time>2018-06-23T14:33:39Z</time>
      </trkpt>
      <trkpt lat="45.11488" lon="5.87868">
        <ele>1805.33</ele>
        <time>2018-06-23T14:33:58Z</time>
      </trkpt>
      <trkpt lat="45.11469" lon="5.87874">
        <ele>1805.55</ele>
        <time>2018-06-23T14:34:16Z</time>
      </trkpt>
      <trkpt lat="45.11451" lon="5.87876">
        <ele>1806.72</ele>
        <time>2018-06-23T14:35:09Z</time>
      </trkpt>
      <trkpt lat="45.11431" lon="5.87881">
        <ele>1805.89</ele>
        <time>2018-06-23T14:35:35Z</time>
      </trkpt>
      <trkpt lat="45.11413" lon="5.87881">
        <ele>1804.4</ele>
        <time>2018-06-23T14:36:00Z</time>
      </trkpt>
      <trkpt lat="45.11395" lon="5.87884">
        <ele>1803.61</ele>
        <time>2018-06-23T14:36:18Z</time>
      </trkpt>
      <trkpt lat="45.11376" lon="5.8788">
        <ele>1802.01</ele>
        <time>2018-06-23T14:36:39Z</time>
      </trkpt>
      <trkpt lat="45.11358" lon="5.87876">
        <ele>1799.73</ele>
        <time>2018-06-23T14:36:59Z</time>
      </trkpt>
      <trkpt lat="45.11341" lon="5.87869">
        <ele>1800.05</ele>
        <time>2018-06-23T14:37:19Z</time>
      </trkpt>
      <trkpt lat="45.11325" lon="5.87855">
        <ele>1800.53</ele>
        <time>2018-06-23T14:37:35Z</time>
      </trkpt>
      <trkpt lat="45.11307" lon="5.87851">
        <ele>1799.31</ele>
        <time>2018-06-23T14:37:48Z</time>
      </trkpt>
      <trkpt lat="45.11289" lon="5.87848">
        <ele>1798.11</ele>
        <time>2018-06-23T14:38:01Z</time>
      </trkpt>
      <trkpt lat="45.11269" lon="5.87851">
        <ele>1796.88</ele>
        <time>2018-06-23T14:38:16Z</time>
      </trkpt>
      <trkpt lat="45.1125" lon="5.87854">
        <ele>1796.17</ele>
        <time>2018-06-23T14:38:29Z</time>
      </trkpt>
      <trkpt lat="45.11231" lon="5.87854">
        <ele>1795.7</ele>
        <time>2018-06-23T14:38:42Z</time>
      </trkpt>
      <trkpt lat="45.11212" lon="5.87859">
        <ele>1794.87</ele>
        <time>2018-06-23T14:38:56Z</time>
      </trkpt>
      <trkpt lat="45.11195" lon="5.87869">
        <ele>1794.09</ele>
        <time>2018-06-23T14:39:09Z</time>
      </trkpt>
      <trkpt lat="45.11177" lon="5.87875">
        <ele>1793.11</ele>
        <time>2018-06-23T14:39:21Z</time>
      </trkpt>
      <trkpt lat="45.1116" lon="5.87867">
        <ele>1791.38</ele>
        <time>2018-06-23T14:39:37Z</time>
      </trkpt>
      <trkpt lat="45.11142" lon="5.87857">
        <ele>1790.15</ele>
        <time>2018-06-23T14:39:52Z</time>
      </trkpt>
      <trkpt lat="45.11125" lon="5.8785">
        <ele>1788.18</ele>
        <time>2018-06-23T14:40:06Z</time>
      </trkpt>
      <trkpt lat="45.1111" lon="5.87833">
        <ele>1785.77</ele>
        <time>2018-06-23T14:40:20Z</time>
      </trkpt>
      <trkpt lat="45.11093" lon="5.87819">
        <ele>1783.57</ele>
        <time>2018-06-23T14:40:35Z</time>
      </trkpt>
      <trkpt lat="45.11078" lon="5.87805">
        <ele>1782.07</ele>
        <time>2018-06-23T14:40:46Z</time>
      </trkpt>
      <trkpt lat="45.11062" lon="5.8779">
        <ele>1780.58</ele>
        <time>2018-06-23T14:41:01Z</time>
      </trkpt>
      <trkpt lat="45.11046" lon="5.87776">
        <ele>1779.38</ele>
        <time>2018-06-23T14:41:13Z</time>
      </trkpt>
      <trkpt lat="45.11034" lon="5.87757">
        <ele>1776.91</ele>
        <time>2018-06-23T14:41:27Z</time>
      </trkpt>
      <trkpt lat="45.11024" lon="5.87735">
        <ele>1775.65</ele>
        <time>2018-06-23T14:41:39Z</time>
      </trkpt>
      <trkpt lat="45.11012" lon="5.87714">
        <ele>1773.41</ele>
        <time>2018-06-23T14:41:51Z</time>
      </trkpt>
      <trkpt lat="45.11003" lon="5.87692">
        <ele>1770.27</ele>
        <time>2018-06-23T14:42:04Z</time>
      </trkpt>
      <trkpt lat="45.10998" lon="5.87666">
        <ele>1767.87</ele>
        <time>2018-06-23T14:42:18Z</time>
      </trkpt>
      <trkpt lat="45.10996" lon="5.8764">
        <ele>1767.35</ele>
        <time>2018-06-23T14:42:36Z</time>
      </trkpt>
      <trkpt lat="45.10993" lon="5.87611">
        <ele>1768.07</ele>
        <time>2018-06-23T14:42:46Z</time>
      </trkpt>
      <trkpt lat="45.1098" lon="5.87593">
        <ele>1767.21</ele>
        <time>2018-06-23T14:42:57Z</time>
      </trkpt>
      <trkpt lat="45.10962" lon="5.87586">
        <ele>1764.21</ele>
        <time>2018-06-23T14:43:14Z</time>
      </trkpt>
      <trkpt lat="45.10944" lon="5.87581">
        <ele>1761.27</ele>
        <time>2018-06-23T14:43:28Z</time>
      </trkpt>
      <trkpt lat="45.10925" lon="5.87575">
        <ele>1758.22</ele>
        <time>2018-06-23T14:43:41Z</time>
      </trkpt>
      <trkpt lat="45.10906" lon="5.87573">
        <ele>1755.64</ele>
        <time>2018-06-23T14:43:56Z</time>
      </trkpt>
      <trkpt lat="45.10887" lon="5.87571">
        <ele>1754.29</ele>
        <time>2018-06-23T14:44:09Z</time>
      </trkpt>
      <trkpt lat="45.10869" lon="5.8757">
        <ele>1753.3</ele>
        <time>2018-06-23T14:44:23Z</time>
      </trkpt>
      <trkpt lat="45.10851" lon="5.87565">
        <ele>1752.89</ele>
        <time>2018-06-23T14:44:34Z</time>
      </trkpt>
      <trkpt lat="45.10833" lon="5.8756">
        <ele>1752.43</ele>
        <time>2018-06-23T14:44:46Z</time>
      </trkpt>
      <trkpt lat="45.10816" lon="5.87556">
        <ele>1751.61</ele>
        <time>2018-06-23T14:45:00Z</time>
      </trkpt>
      <trkpt lat="45.10797" lon="5.87555">
        <ele>1750.73</ele>
        <time>2018-06-23T14:45:13Z</time>
      </trkpt>
      <trkpt lat="45.10778" lon="5.87552">
        <ele>1750.18</ele>
        <time>2018-06-23T14:45:25Z</time>
      </trkpt>
      <trkpt lat="45.10761" lon="5.87548">
        <ele>1749.75</ele>
        <time>2018-06-23T14:45:39Z</time>
      </trkpt>
      <trkpt lat="45.10743" lon="5.87545">
        <ele>1749.33</ele>
        <time>2018-06-23T14:45:52Z</time>
      </trkpt>
      <trkpt lat="45.10723" lon="5.87546">
        <ele>1748.71</ele>
        <time>2018-06-23T14:46:05Z</time>
      </trkpt>
      <trkpt lat="45.10705" lon="5.87545">
        <ele>1748.11</ele>
        <time>2018-06-23T14:46:19Z</time>
      </trkpt>
      <trkpt lat="45.10687" lon="5.8755">
        <ele>1748.1</ele>
        <time>2018-06-23T14:46:32Z</time>
      </trkpt>
      <trkpt lat="45.10668" lon="5.87553">
        <ele>1747.68</ele>
        <time>2018-06-23T14:46:46Z</time>
      </trkpt>
      <trkpt lat="45.10649" lon="5.87554">
        <ele>1746.94</ele>
        <time>2018-06-23T14:46:58Z</time>
      </trkpt>
      <trkpt lat="45.10631" lon="5.87551">
        <ele>1746.37</ele>
        <time>2018-06-23T14:47:12Z</time>
      </trkpt>
    </trkseg>
  </trk>
</gpx>